Date,TemperatureHighF,TemperatureAvgF,TemperatureLowF,DewpointHighF,DewpointAvgF,DewpointLowF,HumidityHigh,HumidityAvg,HumidityLow,PressureMaxIn,PressureMinIn,WindSpeedMaxMPH,WindSpeedAvgMPH,GustSpeedMaxMPH,PrecipitationSumIn
2013-1-1,25.0,22.9,21.0,18.0,13.4,9.0,80,66,58,0.00,40.00,26,14,32,0.00
2013-1-2,27.0,25.5,23.0,21.0,17.5,12.0,81,72,59,0.00,40.00,21,8,32,0.00
2013-1-3,31.0,28.1,24.0,25.0,22.0,18.0,90,78,60,0.00,40.00,26,13,34,0.00
2013-1-4,37.0,30.2,28.0,29.0,23.3,21.0,82,75,62,0.00,40.00,29,15,38,0.00
2013-1-5,38.0,32.9,27.0,31.0,23.7,20.0,83,69,54,0.00,40.00,30,7,36,0.00
2013-1-6,36.0,32.1,28.0,30.0,25.4,20.0,89,76,68,0.00,40.00,25,12,32,0.00
2013-1-7,41.0,33.5,27.0,28.0,23.2,19.0,76,66,52,0.00,40.00,19,9,42,0.00
2013-1-8,43.0,36.3,31.0,32.0,29.6,26.0,89,77,60,0.00,40.00,13,5,28,0.00
2013-1-9,40.0,37.8,36.0,33.0,27.8,25.0,76,67,58,0.00,40.00,37,18,46,0.00
2013-1-10,44.0,35.1,27.0,28.0,24.9,21.0,90,68,41,0.00,40.00,25,6,31,0.00
2013-1-11,45.0,40.6,36.0,43.0,-10.0,-99.9,99,60,52,0.00,40.00,9,4,20,0.00
2013-1-12,53.0,44.0,36.0,46.0,19.3,-99.9,99,69,56,0.00,40.00,23,10,44,0.00
2013-1-13,36.0,32.0,29.0,32.0,27.9,22.0,95,85,71,0.00,40.00,14,7,27,0.00
2013-1-14,29.0,24.5,22.0,24.0,15.8,9.0,94,70,50,0.00,40.00,34,15,39,0.00
2013-1-15,28.0,25.7,21.0,20.0,15.2,10.0,75,64,52,0.00,40.00,20,10,34,0.00
2013-1-16,32.0,27.4,24.0,29.0,21.8,16.0,99,80,65,0.00,40.00,36,14,46,0.00
2013-1-17,26.0,17.4,15.0,18.0,8.2,2.0,84,67,53,0.00,40.00,33,23,47,0.00
2013-1-18,37.0,20.8,15.0,33.0,14.2,3.0,91,76,54,0.00,40.00,27,10,43,0.00
2013-1-19,38.0,32.7,28.0,37.0,30.1,22.0,96,90,76,0.00,40.00,39,8,50,0.00
2013-1-20,31.0,17.9,14.0,27.0,11.0,4.0,91,74,62,0.00,40.00,46,31,59,0.00
2013-1-21,15.0,10.3,4.0,10.0,4.6,0.0,88,78,60,0.00,40.00,37,23,49,0.00
2013-1-22,11.0,6.2,3.0,3.0,0.3,-3.0,85,76,58,0.00,40.00,32,23,42,0.00
2013-1-23,15.0,12.3,10.0,11.0,5.7,-1.0,88,75,60,0.00,40.00,22,13,34,0.00
2013-1-24,15.0,7.9,2.0,7.0,0.6,-4.0,83,72,53,0.00,40.00,20,7,29,0.00
2013-1-25,21.0,14.6,8.0,16.0,9.8,1.0,87,81,67,0.00,40.00,11,6,24,0.00
2013-1-26,29.0,20.6,13.0,20.0,15.2,10.0,91,80,54,0.00,40.00,18,7,24,0.00
2013-1-27,25.0,22.3,18.0,20.0,17.4,15.0,90,81,79,0.00,40.00,8,5,17,0.00
2013-1-28,33.0,30.7,30.0,32.0,29.1,27.0,97,94,86,0.00,40.00,14,4,18,0.00
2013-1-29,48.0,37.3,30.0,47.0,-1.5,-99.9,99,70,93,0.00,40.00,17,5,24,0.00
2013-1-30,34.0,30.8,20.0,25.0,-86.2,-99.9,99,11,95,0.00,40.00,34,17,49,0.00
2013-1-31,21.0,17.7,15.0,20.0,12.9,10.0,96,81,70,0.00,40.00,35,23,42,0.00
2013-2-1,18.0,15.5,12.0,13.0,9.8,5.0,89,78,65,0.00,40.00,31,19,39,0.00
2013-2-2,16.0,12.9,11.0,9.0,4.8,-1.0,84,70,47,0.00,40.00,20,10,34,0.00
2013-2-3,19.0,14.3,11.0,14.0,8.1,3.0,92,76,58,0.00,40.00,31,14,43,0.00
2013-2-4,17.0,15.5,13.0,11.0,7.0,3.0,85,69,56,0.00,40.00,24,12,31,0.00
2013-2-5,24.0,16.4,6.0,20.0,11.3,3.0,91,80,62,0.00,40.00,34,13,41,0.00
2013-2-6,27.0,21.7,16.0,21.0,13.5,8.0,92,71,53,0.00,40.00,29,9,37,0.00
2013-2-7,28.0,24.0,21.0,27.0,22.5,19.0,96,94,91,0.00,40.00,13,5,24,0.00
2013-2-8,22.0,19.7,8.0,19.0,14.1,2.0,92,78,59,0.00,40.00,21,11,26,0.00
2013-2-9,31.0,13.0,-5.0,18.0,5.6,-9.0,90,74,44,0.00,40.00,9,3,16,0.00
2013-2-10,38.0,29.8,23.0,36.0,22.5,16.0,97,75,55,0.00,40.00,10,6,23,0.00
2013-2-11,40.0,34.7,28.0,39.0,32.7,21.0,98,93,73,0.00,40.00,34,15,46,0.00
2013-2-12,28.0,27.1,26.0,22.0,20.3,18.0,81,75,69,0.00,40.00,32,15,39,0.00
2013-2-13,37.0,30.7,27.0,30.0,26.5,21.0,96,84,71,0.00,40.00,13,5,23,0.00
2013-2-14,36.0,31.3,25.0,35.0,10.0,-99.9,99,80,80,0.00,40.00,37,12,45,0.00
2013-2-15,25.0,21.8,18.0,20.0,13.6,7.0,82,70,56,0.00,40.00,32,22,41,0.00
2013-2-16,20.0,16.3,13.0,12.0,7.7,3.0,88,69,57,0.00,40.00,20,9,26,0.00
2013-2-17,21.0,15.1,7.0,11.0,7.0,3.0,84,70,57,0.00,40.00,10,4,15,0.00
2013-2-18,40.0,28.6,17.0,35.0,16.6,8.0,95,61,44,0.00,40.00,11,7,23,0.00
2013-2-19,40.0,29.6,17.0,39.0,28.5,15.0,98,95,88,0.00,40.00,47,21,57,0.00
2013-2-20,21.0,16.3,13.0,17.0,10.6,6.0,93,78,71,0.00,40.00,39,29,49,0.00
2013-2-21,22.0,17.2,15.0,15.0,10.8,7.0,85,76,62,0.00,40.00,29,10,37,0.00
2013-2-22,29.0,25.7,17.0,28.0,23.1,13.0,95,89,85,0.00,40.00,9,4,20,0.00
2013-2-23,32.0,28.2,26.0,29.0,26.0,24.0,96,91,78,0.00,40.00,11,3,16,0.00
2013-2-24,37.0,29.5,23.0,30.0,26.3,21.0,96,88,75,0.00,40.00,14,7,16,0.00
2013-2-25,38.0,31.8,29.0,29.0,26.7,22.0,94,82,56,0.00,40.00,8,2,14,0.00
2013-2-26,36.0,31.2,26.0,29.0,25.2,22.0,93,79,63,0.00,40.00,14,6,32,0.00
2013-2-27,34.0,32.5,31.0,32.0,29.3,25.0,96,88,76,0.00,40.00,17,9,27,0.00
2013-2-28,33.0,29.6,25.0,31.0,24.3,15.0,97,81,64,0.00,40.00,29,23,37,0.00
2013-3-1,26.0,21.6,17.0,16.0,13.2,10.0,81,70,59,0.00,40.00,26,16,33,0.00
2013-3-2,25.0,19.7,15.0,18.0,12.4,8.0,81,73,62,0.00,40.00,26,14,32,0.00
2013-3-3,27.0,20.1,12.0,18.0,13.1,7.0,82,74,60,0.00,40.00,20,11,26,0.00
2013-3-4,29.0,18.0,4.0,17.0,11.1,1.0,88,75,51,0.00,40.00,14,6,21,0.00
2013-3-5,29.0,20.7,6.0,20.0,14.5,3.0,89,77,66,0.00,40.00,15,6,24,0.00
2013-3-6,34.0,30.9,27.0,30.0,26.2,20.0,96,83,72,0.00,40.00,25,10,30,0.00
2013-3-7,29.0,27.0,25.0,24.0,19.2,17.0,87,73,63,0.00,40.00,24,11,29,0.00
2013-3-8,35.0,27.5,17.0,27.0,22.1,15.0,92,80,67,0.00,40.00,9,4,14,0.00
2013-3-9,45.0,32.8,20.0,34.0,22.7,18.0,95,70,39,0.00,40.00,9,4,18,0.00
2013-3-10,39.0,36.7,34.0,39.0,-4.0,-99.9,99,67,90,0.00,40.00,16,6,22,0.00
2013-3-11,44.0,37.8,34.0,-99.9,-99.9,-99.9,0,0,100,0.00,40.00,12,4,23,0.00
2013-5-16,57.0,45.6,40.0,43.0,8.6,-99.9,91,63,50,0.00,40.00,12,5,14,0.00
2013-5-17,59.0,46.7,36.0,46.0,36.8,-99.9,98,80,55,0.00,40.00,10,3,15,0.00
2013-5-18,69.0,55.4,43.0,51.0,45.2,41.0,93,71,43,0.00,40.00,9,3,21,0.00
2013-5-19,70.0,57.1,52.0,61.0,46.5,43.0,81,68,50,0.00,40.00,7,2,15,0.00
2013-5-20,76.0,65.3,63.0,61.0,57.0,55.0,84,75,61,0.00,40.00,7,4,17,0.00
2013-5-21,72.0,64.0,56.0,64.0,59.2,50.0,100,85,63,0.00,40.00,9,5,17,0.00
2013-5-22,61.0,55.2,46.0,57.0,52.8,42.0,100,92,80,0.00,40.00,12,4,22,0.00
2013-5-23,48.0,43.8,41.0,47.0,39.5,36.0,99,85,73,0.00,40.00,28,19,33,0.00
2013-5-24,48.0,42.5,35.0,37.0,33.8,30.0,93,72,55,0.00,40.00,22,10,27,0.00
2013-5-25,54.0,42.4,31.0,45.0,36.3,30.0,100,80,51,0.00,40.00,9,4,13,0.00
2013-5-26,62.0,48.6,33.0,51.0,39.2,32.0,100,73,39,0.00,40.00,10,4,14,0.00
2013-5-27,72.0,55.0,39.0,50.0,35.3,21.0,95,56,19,0.00,40.00,10,4,24,0.00
2013-5-28,59.0,54.1,49.0,58.0,46.6,25.0,100,78,32,0.00,40.00,7,3,14,0.00
2013-5-29,57.0,52.2,48.0,55.0,50.2,46.0,99,93,86,0.00,40.00,12,4,17,0.00
2013-5-30,80.0,69.9,54.0,69.0,60.3,53.0,100,73,48,0.00,40.00,13,6,23,0.00
2013-5-31,69.0,69.0,69.0,61.0,61.0,61.0,76,76,76,0.00,40.00,12,12,14,0.00
2013-6-2,57.0,46.1,44.0,56.0,43.3,39.0,100,90,75,0.00,40.00,23,15,30,0.00
2013-6-3,55.0,48.6,40.0,45.0,42.0,38.0,95,79,68,0.00,40.00,10,7,13,0.00
2013-6-4,63.0,54.3,35.0,53.0,40.4,28.0,99,61,37,0.00,40.00,7,3,9,0.00
2013-6-5,66.0,54.0,43.0,58.0,46.8,27.0,100,78,45,0.00,40.00,9,4,17,0.00
2013-6-6,65.0,57.1,46.0,55.0,41.5,32.0,83,58,36,0.00,40.00,16,9,24,0.00
2013-6-7,69.0,56.5,44.0,45.0,41.5,27.0,93,60,40,0.00,40.00,7,3,10,0.00
2013-6-8,67.0,56.5,44.0,55.0,45.1,36.0,98,68,36,0.00,40.00,8,3,13,0.00
2013-6-9,71.0,58.6,42.0,51.0,46.4,41.0,99,68,42,0.00,40.00,9,3,18,0.00
2013-6-10,67.0,62.5,58.0,59.0,54.1,47.0,93,75,54,0.00,40.00,12,4,22,0.00
2013-6-11,69.0,59.8,52.0,66.0,57.6,51.0,100,92,86,0.00,40.00,8,3,17,0.00
2013-6-12,68.0,57.0,51.0,63.0,54.1,49.0,100,90,73,0.00,40.00,6,1,10,0.00
2013-6-13,70.0,61.8,51.0,65.0,56.7,47.0,93,83,75,0.00,40.00,17,8,22,0.00
2013-6-14,65.0,55.2,45.0,58.0,48.3,42.0,98,78,54,0.00,40.00,9,4,14,0.00
2013-7-20,-200.0,0.0,200.0,-99.9,-99.9,-99.9,0,0,100,0.00,40.00,12,12,14,0.00
2013-9-1,-200.0,0.0,200.0,-99.9,-99.9,-99.9,0,0,100,0.00,40.00,1,1,13,0.00
2013-9-8,-200.0,0.0,200.0,-99.9,-99.9,-99.9,0,0,100,0.00,40.00,0,0,1,0.00
2013-9-15,-200.0,0.0,200.0,-99.9,-99.9,-99.9,0,0,100,0.00,40.00,3,3,9,0.00
2013-9-29,-200.0,0.0,200.0,-99.9,-99.9,-99.9,0,0,100,0.00,40.00,5,5,12,0.00
2013-10-9,72.0,63.3,53.0,55.0,51.9,48.0,96,68,49,0.00,40.00,6,4,14,0.00
2013-10-10,65.0,57.2,44.0,54.0,49.5,42.0,99,77,58,0.00,40.00,4,2,5,0.00
2013-10-11,67.0,50.4,46.0,53.0,46.8,45.0,98,90,61,0.00,40.00,4,2,6,0.00
2013-10-12,77.0,61.7,45.0,59.0,49.9,45.0,99,71,41,0.00,40.00,5,3,13,0.00
2013-10-13,61.0,51.1,56.0,53.0,31.2,-99.9,74,61,59,0.00,40.00,11,7,15,0.00
2013-10-14,57.0,50.4,40.0,44.0,41.4,39.0,97,73,56,0.00,40.00,6,3,8,0.00
2013-10-15,60.0,56.5,53.0,48.0,48.0,48.0,82,74,66,0.00,40.00,3,2,8,0.00
2013-10-16,57.0,54.2,51.0,56.0,51.2,44.0,97,90,74,0.00,40.00,15,7,19,0.00
2013-10-17,52.0,51.1,50.0,44.0,41.0,38.0,76,69,63,0.00,40.00,13,6,16,0.00
2013-10-18,54.0,49.0,44.0,48.0,43.6,38.0,97,82,71,0.00,40.00,11,5,14,0.00
2013-10-19,50.0,47.2,45.0,44.0,41.6,37.0,98,82,60,0.00,40.00,11,6,14,0.00
2013-10-20,48.0,41.8,38.0,43.0,39.8,38.0,99,93,73,0.00,40.00,3,2,6,0.00
2013-10-21,48.0,43.9,42.0,46.0,40.0,36.0,99,87,80,0.00,40.00,9,7,16,0.00
2013-10-22,45.0,44.0,39.0,38.0,35.7,29.0,77,73,67,0.00,40.00,19,15,24,0.00
2013-10-23,45.0,42.5,41.0,33.0,30.5,29.0,67,63,55,0.00,40.00,18,15,24,0.00
2013-10-24,44.0,43.5,43.0,36.0,36.0,36.0,77,74,72,0.00,40.00,17,16,24,0.00
2013-10-25,43.0,42.8,42.0,37.0,34.2,31.0,78,72,63,0.00,40.00,14,11,18,0.00
2013-10-26,47.0,43.6,42.0,40.0,39.1,36.0,91,84,74,0.00,40.00,21,17,27,0.00
2013-10-27,47.0,35.8,42.0,35.0,11.5,-99.9,77,59,59,0.00,40.00,16,12,22,0.00
2013-10-28,47.0,34.8,35.0,38.0,13.0,-99.9,77,63,53,0.00,40.00,19,8,24,0.00
2013-10-29,33.0,33.0,33.0,26.0,26.0,26.0,73,73,73,0.00,40.00,3,3,6,0.00
2013-10-30,50.0,49.5,49.0,44.0,43.5,43.0,82,78,75,0.00,40.00,2,2,4,0.00
2013-10-31,60.0,55.4,52.0,58.0,52.5,46.0,100,91,75,0.00,40.00,4,3,13,0.00
2013-11-1,54.0,49.7,47.0,54.0,47.1,42.0,99,90,81,0.00,40.00,26,13,32,0.00
2013-11-2,44.0,40.2,38.0,37.0,32.3,29.0,82,74,69,0.00,40.00,9,6,14,0.00
2013-11-3,46.0,36.3,33.0,30.0,21.8,-99.9,85,65,49,0.00,40.00,4,3,8,0.00
2013-11-4,51.0,47.1,40.0,32.0,28.6,25.0,71,50,38,29.88,29.88,9,6,26,0.00
2013-11-5,54.0,49.7,47.0,50.0,43.7,33.0,96,80,57,29.88,29.88,9,4,15,0.00
2013-11-6,53.0,50.9,50.0,53.0,50.4,49.0,99,98,96,29.88,29.88,26,7,31,0.00
2013-11-7,41.0,40.0,37.0,34.0,31.4,27.0,89,71,57,29.88,29.88,29,22,35,0.00
2013-11-8,40.0,38.7,34.0,32.0,28.1,23.0,84,66,50,29.88,29.88,25,12,32,0.00
2013-11-9,46.0,41.3,37.0,45.0,32.0,-99.9,98,78,66,29.88,29.88,32,16,43,0.00
2013-11-10,44.0,42.4,41.0,37.0,34.0,29.0,84,73,61,29.88,29.88,37,28,47,0.00
2013-11-11,37.0,32.5,31.0,35.0,25.0,20.0,93,74,61,29.88,29.88,37,31,44,0.00
2013-11-12,34.0,30.8,29.0,25.0,19.2,15.0,74,62,49,29.88,29.74,30,19,39,0.00
2013-11-13,43.0,36.5,31.0,29.0,22.7,16.0,76,57,48,29.88,29.24,16,10,30,0.00
2013-11-14,46.0,42.8,39.0,37.0,31.5,28.0,87,65,56,29.88,29.88,14,8,30,0.00
2013-11-15,51.0,43.3,35.0,41.0,37.1,34.0,97,80,60,29.88,29.88,9,5,17,0.00
2013-11-16,54.0,45.5,39.0,52.0,37.4,-99.9,93,79,73,29.88,29.88,12,7,24,0.00
2013-11-17,59.0,54.1,47.0,59.0,53.5,42.0,100,97,90,29.88,29.88,35,10,45,0.00
2013-11-19,35.0,31.2,26.0,25.0,23.1,21.0,94,72,60,29.88,29.88,24,11,32,0.00
2013-11-20,45.0,36.9,31.0,28.0,24.7,22.0,81,62,43,29.88,29.88,9,5,19,0.00
2013-11-21,43.0,40.1,36.0,41.0,35.6,28.0,97,84,63,29.88,29.88,11,4,15,0.00
2013-11-22,42.0,35.3,33.0,38.0,30.3,20.0,94,83,51,29.88,29.88,31,22,36,0.00
2013-11-23,33.0,24.0,21.0,25.0,13.5,-99.9,86,70,61,29.88,29.88,36,32,45,0.00
2013-11-24,23.0,21.6,20.0,14.0,12.1,8.0,72,66,57,29.88,29.88,29,15,36,0.00
2013-11-25,38.0,31.5,24.0,31.0,25.3,15.0,99,78,61,29.88,29.88,15,11,33,0.00
2013-11-30,37.0,32.4,27.0,35.0,23.3,-99.9,91,74,67,29.77,29.36,12,7,20,0.00
2013-12-1,36.0,33.9,30.0,32.0,28.3,24.0,89,80,72,29.88,29.37,9,4,15,0.00
2013-12-2,33.0,30.7,29.0,26.0,22.7,18.0,86,72,61,29.88,29.88,5,3,10,0.00
2013-12-3,30.0,27.0,25.0,28.0,22.3,18.0,92,83,68,29.88,29.88,6,3,13,0.00
2013-12-4,45.0,34.3,30.0,45.0,33.5,29.0,99,97,94,29.88,29.88,9,6,24,0.00
2013-12-5,47.0,31.5,24.0,47.0,23.8,14.0,99,73,65,29.88,29.88,21,14,35,0.00
2013-12-6,23.0,22.1,21.0,15.0,12.3,9.0,75,65,55,29.88,29.88,21,14,32,0.00
2013-12-7,21.0,19.0,19.0,11.0,4.9,-99.9,69,60,55,29.88,29.88,25,14,34,0.00
2013-12-8,20.0,18.6,17.0,16.0,12.5,7.0,88,77,59,29.88,29.88,16,6,24,0.00
2013-12-9,29.0,22.5,16.0,26.0,19.0,8.0,94,86,69,29.88,29.88,27,9,43,0.00
2013-12-10,20.0,15.6,13.0,15.0,9.6,5.0,91,77,63,29.88,29.88,27,13,36,0.00
2013-12-11,18.0,15.4,14.0,10.0,7.8,3.0,79,71,61,29.88,29.88,27,20,40,0.00
2013-12-12,22.0,17.2,13.0,14.0,9.3,5.0,88,71,63,29.88,29.88,26,16,38,0.00
2013-12-25,24.0,19.0,11.0,21.0,15.2,4.0,94,85,70,29.88,29.88,11,7,21,0.00
2013-12-26,24.0,22.3,21.0,20.0,16.6,14.0,93,78,67,29.88,29.88,19,8,22,0.00
2013-12-27,38.0,25.3,20.0,32.0,19.3,14.0,85,77,72,29.88,29.88,16,8,24,0.00
2013-12-28,41.0,33.8,29.0,32.0,25.9,-99.9,98,81,67,29.88,29.88,17,6,27,0.00
2013-12-29,36.0,22.8,14.0,35.0,19.3,5.0,99,87,68,29.88,29.88,27,8,48,0.00
2013-12-30,16.0,14.1,12.0,9.0,7.1,4.0,87,74,62,29.88,29.88,21,11,28,0.00
2013-12-31,13.0,11.9,10.0,9.0,4.4,1.0,85,72,63,29.88,29.88,27,19,34,0.00
2014-1-1,12.0,9.5,5.0,3.0,0.9,-2.0,77,67,56,29.88,29.88,20,11,26,0.00
2014-1-2,11.0,5.5,-3.0,1.0,-1.5,-9.0,81,72,59,29.88,29.88,8,4,16,0.00